sensor_id;sensor_type;location;lat;lon;timestamp;pressure;altitude;pressure_sealevel;temperature;humidity
77583;BME280;66726;52.388;9.986;2023-07-09T00:00:10;101294.63;;;23.24;48.82
77583;BME280;66726;52.388;9.986;2023-07-09T00:02:45;101297.28;;;23.12;49.11
77583;BME280;66726;52.388;9.986;2023-07-09T00:05:20;101298.13;;;23.13;48.76
77583;BME280;66726;52.388;9.986;2023-07-09T00:07:54;101301.09;;;23.11;49.02
77583;BME280;66726;52.388;9.986;2023-07-09T00:10:26;101304.97;;;23.04;49.59
77583;BME280;66726;52.388;9.986;2023-07-09T00:12:58;101301.63;;;23.02;49.32
77583;BME280;66726;52.388;9.986;2023-07-09T00:15:30;101305.72;;;22.93;48.90
77583;BME280;66726;52.388;9.986;2023-07-09T00:18:02;101302.22;;;22.86;49.52
77583;BME280;66726;52.388;9.986;2023-07-09T00:20:34;101293.44;;;22.84;49.53
77583;BME280;66726;52.388;9.986;2023-07-09T00:23:07;101296.38;;;22.82;49.38
77583;BME280;66726;52.388;9.986;2023-07-09T00:25:39;101304.19;;;22.79;49.64
77583;BME280;66726;52.388;9.986;2023-07-09T00:28:18;101300.69;;;22.71;50.00
77583;BME280;66726;52.388;9.986;2023-07-09T00:30:52;101310.72;;;22.78;49.67
77583;BME280;66726;52.388;9.986;2023-07-09T00:33:23;101307.84;;;22.72;50.16
77583;BME280;66726;52.388;9.986;2023-07-09T00:36:04;101302.50;;;22.59;50.31
77583;BME280;66726;52.388;9.986;2023-07-09T00:38:41;101295.69;;;22.44;50.68
77583;BME280;66726;52.388;9.986;2023-07-09T00:41:21;101297.16;;;22.46;50.57
77583;BME280;66726;52.388;9.986;2023-07-09T00:43:55;101298.22;;;22.45;50.51
77583;BME280;66726;52.388;9.986;2023-07-09T00:47:12;101301.00;;;22.39;50.59
77583;BME280;66726;52.388;9.986;2023-07-09T00:49:49;101292.19;;;22.37;50.68
77583;BME280;66726;52.388;9.986;2023-07-09T00:52:34;101294.13;;;22.36;50.54
77583;BME280;66726;52.388;9.986;2023-07-09T00:55:15;101297.25;;;22.33;50.44
77583;BME280;66726;52.388;9.986;2023-07-09T00:57:52;101290.22;;;22.26;50.86
77583;BME280;66726;52.388;9.986;2023-07-09T01:00:41;101289.22;;;22.20;50.56
77583;BME280;66726;52.388;9.986;2023-07-09T01:03:25;101296.41;;;22.14;51.24
77583;BME280;66726;52.388;9.986;2023-07-09T01:06:00;101288.28;;;22.08;50.98
77583;BME280;66726;52.388;9.986;2023-07-09T01:08:35;101284.38;;;21.97;51.50
77583;BME280;66726;52.388;9.986;2023-07-09T01:11:17;101279.56;;;21.93;51.19
77583;BME280;66726;52.388;9.986;2023-07-09T01:13:54;101279.84;;;21.85;51.92
77583;BME280;66726;52.388;9.986;2023-07-09T01:16:30;101274.56;;;21.90;52.47
77583;BME280;66726;52.388;9.986;2023-07-09T01:19:02;101280.03;;;21.90;52.32
77583;BME280;66726;52.388;9.986;2023-07-09T01:21:35;101278.16;;;21.84;52.41
77583;BME280;66726;52.388;9.986;2023-07-09T01:24:52;101275.19;;;21.85;52.11
77583;BME280;66726;52.388;9.986;2023-07-09T01:27:28;101280.97;;;21.70;52.79
77583;BME280;66726;52.388;9.986;2023-07-09T01:30:01;101283.97;;;21.62;52.87
77583;BME280;66726;52.388;9.986;2023-07-09T01:32:33;101282.31;;;21.55;52.60
77583;BME280;66726;52.388;9.986;2023-07-09T01:35:08;101278.59;;;21.49;52.90
77583;BME280;66726;52.388;9.986;2023-07-09T01:37:44;101285.09;;;21.48;53.17
77583;BME280;66726;52.388;9.986;2023-07-09T01:40:22;101285.09;;;21.48;53.22
77583;BME280;66726;52.388;9.986;2023-07-09T01:43:05;101284.47;;;21.46;53.02
77583;BME280;66726;52.388;9.986;2023-07-09T01:45:38;101292.03;;;21.44;53.24
77583;BME280;66726;52.388;9.986;2023-07-09T01:48:11;101284.47;;;21.46;52.90
77583;BME280;66726;52.388;9.986;2023-07-09T01:50:48;101293.09;;;21.43;53.81
77583;BME280;66726;52.388;9.986;2023-07-09T01:53:26;101290.81;;;21.40;53.41
77583;BME280;66726;52.388;9.986;2023-07-09T01:56:02;101284.13;;;21.36;53.26
77583;BME280;66726;52.388;9.986;2023-07-09T01:58:35;101277.44;;;21.32;53.01
77583;BME280;66726;52.388;9.986;2023-07-09T02:01:07;101272.19;;;21.31;53.15
77583;BME280;66726;52.388;9.986;2023-07-09T02:03:39;101268.94;;;21.15;53.79
77583;BME280;66726;52.388;9.986;2023-07-09T02:06:10;101276.25;;;21.08;54.29
77583;BME280;66726;52.388;9.986;2023-07-09T02:08:43;101274.00;;;20.99;54.40
77583;BME280;66726;52.388;9.986;2023-07-09T02:11:16;101271.09;;;20.94;53.78
77583;BME280;66726;52.388;9.986;2023-07-09T02:13:48;101273.00;;;20.87;54.73
77583;BME280;66726;52.388;9.986;2023-07-09T02:16:20;101270.47;;;20.92;54.56
77583;BME280;66726;52.388;9.986;2023-07-09T02:18:52;101272.59;;;20.77;54.28
77583;BME280;66726;52.388;9.986;2023-07-09T02:21:23;101275.56;;;20.75;54.26
77583;BME280;66726;52.388;9.986;2023-07-09T02:24:00;101278.91;;;20.70;54.38
77583;BME280;66726;52.388;9.986;2023-07-09T02:26:34;101283.50;;;20.70;55.09
77583;BME280;66726;52.388;9.986;2023-07-09T02:29:05;101289.38;;;20.73;54.58
77583;BME280;66726;52.388;9.986;2023-07-09T02:31:37;101286.00;;;20.78;54.51
77583;BME280;66726;52.388;9.986;2023-07-09T02:34:10;101286.66;;;20.67;54.88
77583;BME280;66726;52.388;9.986;2023-07-09T02:36:42;101289.78;;;20.70;54.47
77583;BME280;66726;52.388;9.986;2023-07-09T02:39:15;101296.06;;;20.71;55.00
77583;BME280;66726;52.388;9.986;2023-07-09T02:41:50;101292.09;;;20.73;55.45
77583;BME280;66726;52.388;9.986;2023-07-09T02:44:22;101302.78;;;20.55;55.26
77583;BME280;66726;52.388;9.986;2023-07-09T02:46:54;101294.88;;;20.47;55.04
77583;BME280;66726;52.388;9.986;2023-07-09T02:49:26;101297.78;;;20.46;55.36
77583;BME280;66726;52.388;9.986;2023-07-09T02:51:58;101296.97;;;20.39;55.37
77583;BME280;66726;52.388;9.986;2023-07-09T02:54:30;101295.69;;;20.35;55.30
77583;BME280;66726;52.388;9.986;2023-07-09T02:57:03;101289.63;;;20.26;55.72
77583;BME280;66726;52.388;9.986;2023-07-09T02:59:36;101292.53;;;20.24;55.79
77583;BME280;66726;52.388;9.986;2023-07-09T03:02:08;101290.66;;;20.25;55.61
77583;BME280;66726;52.388;9.986;2023-07-09T03:04:40;101300.28;;;20.21;56.12
77583;BME280;66726;52.388;9.986;2023-07-09T03:07:12;101296.34;;;20.17;56.31
77583;BME280;66726;52.388;9.986;2023-07-09T03:09:44;101291.09;;;20.09;56.52
77583;BME280;66726;52.388;9.986;2023-07-09T03:12:17;101294.41;;;20.11;56.19
77583;BME280;66726;52.388;9.986;2023-07-09T03:14:51;101296.09;;;20.12;56.19
77583;BME280;66726;52.388;9.986;2023-07-09T03:17:23;101292.78;;;20.03;56.65
77583;BME280;66726;52.388;9.986;2023-07-09T03:19:55;101284.59;;;19.97;56.98
77583;BME280;66726;52.388;9.986;2023-07-09T03:22:27;101285.84;;;19.88;56.83
77583;BME280;66726;52.388;9.986;2023-07-09T03:24:59;101281.88;;;19.90;56.95
77583;BME280;66726;52.388;9.986;2023-07-09T03:27:32;101293.16;;;19.94;57.16
77583;BME280;66726;52.388;9.986;2023-07-09T03:30:05;101289.59;;;19.87;57.35
77583;BME280;66726;52.388;9.986;2023-07-09T03:32:37;101286.47;;;19.83;57.18
77583;BME280;66726;52.388;9.986;2023-07-09T03:35:09;101289.59;;;19.80;57.40
77583;BME280;66726;52.388;9.986;2023-07-09T03:37:42;101292.97;;;19.76;57.20
77583;BME280;66726;52.388;9.986;2023-07-09T03:40:22;101296.72;;;19.74;57.53
77583;BME280;66726;52.388;9.986;2023-07-09T03:42:56;101296.47;;;19.69;57.49
77583;BME280;66726;52.388;9.986;2023-07-09T03:45:28;101304.63;;;19.69;58.16
77583;BME280;66726;52.388;9.986;2023-07-09T03:48:00;101311.53;;;19.65;58.31
77583;BME280;66726;52.388;9.986;2023-07-09T03:50:33;101305.28;;;19.71;58.06
77583;BME280;66726;52.388;9.986;2023-07-09T03:53:05;101317.19;;;19.70;58.35
77583;BME280;66726;52.388;9.986;2023-07-09T03:55:37;101307.75;;;19.66;58.19
77583;BME280;66726;52.388;9.986;2023-07-09T03:58:10;101306.09;;;19.65;57.96
77583;BME280;66726;52.388;9.986;2023-07-09T04:00:42;101309.84;;;19.64;57.89
77583;BME280;66726;52.388;9.986;2023-07-09T04:03:15;101310.28;;;19.61;58.54
77583;BME280;66726;52.388;9.986;2023-07-09T04:05:49;101314.03;;;19.60;58.71
77583;BME280;66726;52.388;9.986;2023-07-09T04:08:21;101313.41;;;19.58;58.44
77583;BME280;66726;52.388;9.986;2023-07-09T04:10:55;101306.88;;;19.53;59.01
77583;BME280;66726;52.388;9.986;2023-07-09T04:13:31;101309.81;;;19.51;59.10
77583;BME280;66726;52.388;9.986;2023-07-09T04:16:03;101319.44;;;19.54;59.42
77583;BME280;66726;52.388;9.986;2023-07-09T04:18:36;101310.03;;;19.56;59.25
77583;BME280;66726;52.388;9.986;2023-07-09T04:21:08;101309.00;;;19.57;59.05
77583;BME280;66726;52.388;9.986;2023-07-09T04:23:40;101313.16;;;19.53;59.52
77583;BME280;66726;52.388;9.986;2023-07-09T04:26:14;101307.72;;;19.53;59.52
77583;BME280;66726;52.388;9.986;2023-07-09T04:28:48;101307.72;;;19.53;59.63
77583;BME280;66726;52.388;9.986;2023-07-09T04:31:19;101317.97;;;19.51;59.61
77583;BME280;66726;52.388;9.986;2023-07-09T04:33:50;101314.84;;;19.54;60.02
77583;BME280;66726;52.388;9.986;2023-07-09T04:36:23;101311.47;;;19.52;60.15
77583;BME280;66726;52.388;9.986;2023-07-09T04:38:55;101316.47;;;19.49;60.06
77583;BME280;66726;52.388;9.986;2023-07-09T04:41:27;101317.97;;;19.51;60.23
77583;BME280;66726;52.388;9.986;2023-07-09T04:44:00;101314.41;;;19.51;60.42
77583;BME280;66726;52.388;9.986;2023-07-09T04:46:32;101310.66;;;19.52;59.72
77583;BME280;66726;52.388;9.986;2023-07-09T04:49:05;101314.84;;;19.54;60.06
77583;BME280;66726;52.388;9.986;2023-07-09T04:51:37;101320.28;;;19.54;59.29
77583;BME280;66726;52.388;9.986;2023-07-09T04:54:09;101325.28;;;19.51;59.03
77583;BME280;66726;52.388;9.986;2023-07-09T04:56:41;101320.47;;;19.53;58.97
77583;BME280;66726;52.388;9.986;2023-07-09T04:59:16;101317.13;;;19.51;58.87
77583;BME280;66726;52.388;9.986;2023-07-09T05:01:48;101320.03;;;19.49;58.39
77583;BME280;66726;52.388;9.986;2023-07-09T05:04:20;101316.91;;;19.52;58.57
77583;BME280;66726;52.388;9.986;2023-07-09T05:06:51;101317.16;;;19.57;59.08
77583;BME280;66726;52.388;9.986;2023-07-09T05:09:23;101324.47;;;19.57;58.42
77583;BME280;66726;52.388;9.986;2023-07-09T05:11:55;101317.78;;;19.59;58.34
77583;BME280;66726;52.388;9.986;2023-07-09T05:14:30;101318.19;;;19.63;58.57
77583;BME280;66726;52.388;9.986;2023-07-09T05:17:01;101318.19;;;19.63;58.86
77583;BME280;66726;52.388;9.986;2023-07-09T05:19:34;101323.44;;;19.64;59.07
77583;BME280;66726;52.388;9.986;2023-07-09T05:22:07;101319.69;;;19.65;58.80
77583;BME280;66726;52.388;9.986;2023-07-09T05:24:39;101316.56;;;19.68;58.60
77583;BME280;66726;52.388;9.986;2023-07-09T05:27:11;101323.25;;;19.72;57.99
77583;BME280;66726;52.388;9.986;2023-07-09T05:29:44;101327.63;;;19.73;58.54
77583;BME280;66726;52.388;9.986;2023-07-09T05:32:16;101328.06;;;19.77;58.69
77583;BME280;66726;52.388;9.986;2023-07-09T05:34:48;101319.28;;;19.82;59.17
77583;BME280;66726;52.388;9.986;2023-07-09T05:37:20;101317.84;;;19.86;59.55
77583;BME280;66726;52.388;9.986;2023-07-09T05:39:52;101310.31;;;19.88;59.02
77583;BME280;66726;52.388;9.986;2023-07-09T05:42:24;101322.44;;;19.92;59.15
77583;BME280;66726;52.388;9.986;2023-07-09T05:44:58;101325.78;;;19.94;59.33
77583;BME280;66726;52.388;9.986;2023-07-09T05:47:30;101320.75;;;19.97;59.71
77583;BME280;66726;52.388;9.986;2023-07-09T05:50:02;101327.69;;;20.00;59.21
77583;BME280;66726;52.388;9.986;2023-07-09T05:52:34;101326.19;;;20.04;59.35
77583;BME280;66726;52.388;9.986;2023-07-09T05:55:07;101323.47;;;20.04;59.46
77583;BME280;66726;52.388;9.986;2023-07-09T05:57:39;101332.28;;;20.06;59.49
77583;BME280;66726;52.388;9.986;2023-07-09T06:00:15;101328.91;;;20.10;59.92
77583;BME280;66726;52.388;9.986;2023-07-09T06:02:47;101338.56;;;20.13;59.61
77583;BME280;66726;52.388;9.986;2023-07-09T06:05:19;101331.88;;;20.15;59.61
77583;BME280;66726;52.388;9.986;2023-07-09T06:07:52;101333.97;;;20.20;59.06
77583;BME280;66726;52.388;9.986;2023-07-09T06:10:24;101334.16;;;20.25;59.52
77583;BME280;66726;52.388;9.986;2023-07-09T06:12:56;101336.31;;;20.30;59.45
77583;BME280;66726;52.388;9.986;2023-07-09T06:15:30;101338.41;;;20.34;58.93
77583;BME280;66726;52.388;9.986;2023-07-09T06:18:02;101344.03;;;20.39;59.16
77583;BME280;66726;52.388;9.986;2023-07-09T06:20:34;101345.50;;;20.42;58.88
77583;BME280;66726;52.388;9.986;2023-07-09T06:23:05;101343.19;;;20.45;59.24
77583;BME280;66726;52.388;9.986;2023-07-09T06:25:40;101342.38;;;20.51;59.40
77583;BME280;66726;52.388;9.986;2023-07-09T06:28:12;101348.00;;;20.56;59.46
77583;BME280;66726;52.388;9.986;2023-07-09T06:30:46;101344.66;;;20.61;59.22
77583;BME280;66726;52.388;9.986;2023-07-09T06:33:20;101347.56;;;20.66;58.57
77583;BME280;66726;52.388;9.986;2023-07-09T06:35:55;101343.16;;;20.71;58.27
77583;BME280;66726;52.388;9.986;2023-07-09T06:38:28;101344.19;;;20.77;58.81
77583;BME280;66726;52.388;9.986;2023-07-09T06:41:00;101350.06;;;20.81;58.50
77583;BME280;66726;52.388;9.986;2023-07-09T06:43:33;101346.03;;;20.90;59.03
77583;BME280;66726;52.388;9.986;2023-07-09T06:46:05;101347.28;;;20.94;59.37
77583;BME280;66726;52.388;9.986;2023-07-09T06:48:37;101346.03;;;20.96;60.69
77583;BME280;66726;52.388;9.986;2023-07-09T06:51:09;101346.41;;;21.06;59.08
77583;BME280;66726;52.388;9.986;2023-07-09T06:53:41;101345.19;;;21.15;59.50
77583;BME280;66726;52.388;9.986;2023-07-09T06:56:18;101340.97;;;21.19;59.24
77583;BME280;66726;52.388;9.986;2023-07-09T06:58:50;101347.44;;;21.25;59.04
77583;BME280;66726;52.388;9.986;2023-07-09T07:01:23;101344.91;;;21.30;60.86
77583;BME280;66726;52.388;9.986;2023-07-09T07:03:55;101343.63;;;21.39;58.62
77583;BME280;66726;52.388;9.986;2023-07-09T07:06:27;101336.84;;;21.48;57.12
77583;BME280;66726;52.388;9.986;2023-07-09T07:08:59;101345.63;;;21.57;56.63
77583;BME280;66726;52.388;9.986;2023-07-09T07:11:31;101345.34;;;21.65;56.71
77583;BME280;66726;52.388;9.986;2023-07-09T07:14:03;101339.47;;;21.74;55.25
77583;BME280;66726;52.388;9.986;2023-07-09T07:16:36;101345.47;;;21.83;55.16
77583;BME280;66726;52.388;9.986;2023-07-09T07:19:08;101341.47;;;21.86;56.95
77583;BME280;66726;52.388;9.986;2023-07-09T07:21:40;101336.78;;;21.99;55.21
77583;BME280;66726;52.388;9.986;2023-07-09T07:24:12;101343.25;;;22.05;55.38
77583;BME280;66726;52.388;9.986;2023-07-09T07:26:44;101345.75;;;22.06;57.69
77583;BME280;66726;52.388;9.986;2023-07-09T07:29:16;101342.53;;;22.16;56.78
77583;BME280;66726;52.388;9.986;2023-07-09T07:31:49;101338.09;;;22.21;56.57
77583;BME280;66726;52.388;9.986;2023-07-09T07:34:21;101346.03;;;22.23;57.31
77583;BME280;66726;52.388;9.986;2023-07-09T07:36:53;101337.66;;;22.49;53.69
77583;BME280;66726;52.388;9.986;2023-07-09T07:39:25;101341.75;;;22.58;53.12
77583;BME280;66726;52.388;9.986;2023-07-09T07:41:58;101340.63;;;22.66;53.30
77583;BME280;66726;52.388;9.986;2023-07-09T07:44:30;101342.28;;;22.73;53.75
77583;BME280;66726;52.388;9.986;2023-07-09T07:47:03;101339.53;;;22.73;55.54
77583;BME280;66726;52.388;9.986;2023-07-09T07:49:35;101345.31;;;22.84;54.96
77583;BME280;66726;52.388;9.986;2023-07-09T07:52:09;101350.31;;;22.87;55.26
77583;BME280;66726;52.388;9.986;2023-07-09T07:54:41;101351.22;;;22.99;53.81
77583;BME280;66726;52.388;9.986;2023-07-09T07:57:15;101349.50;;;23.04;55.80
77583;BME280;66726;52.388;9.986;2023-07-09T07:59:48;101353.50;;;23.20;53.41
77583;BME280;66726;52.388;9.986;2023-07-09T08:02:22;101350.78;;;23.20;55.47
77583;BME280;66726;52.388;9.986;2023-07-09T08:04:55;101350.03;;;23.31;55.07
77583;BME280;66726;52.388;9.986;2023-07-09T08:07:27;101341.84;;;23.49;52.79
77583;BME280;66726;52.388;9.986;2023-07-09T08:09:59;101351.94;;;23.49;53.41
77583;BME280;66726;52.388;9.986;2023-07-09T08:12:30;101345.16;;;23.51;56.18
77583;BME280;66726;52.388;9.986;2023-07-09T08:15:02;101348.75;;;23.63;53.86
77583;BME280;66726;52.388;9.986;2023-07-09T08:17:36;101349.41;;;23.77;53.72
77583;BME280;66726;52.388;9.986;2023-07-09T08:20:11;101348.03;;;23.86;51.80
77583;BME280;66726;52.388;9.986;2023-07-09T08:22:43;101351.53;;;24.05;50.69
77583;BME280;66726;52.388;9.986;2023-07-09T08:25:15;101341.56;;;24.10;51.69
77583;BME280;66726;52.388;9.986;2023-07-09T08:27:47;101336.38;;;24.32;49.68
77583;BME280;66726;52.388;9.986;2023-07-09T08:30:18;101340.69;;;24.28;51.98
77583;BME280;66726;52.388;9.986;2023-07-09T08:32:52;101332.13;;;24.48;50.22
77583;BME280;66726;52.388;9.986;2023-07-09T08:35:24;101331.16;;;24.54;50.39
77583;BME280;66726;52.388;9.986;2023-07-09T08:38:06;101327.56;;;24.77;48.43
77583;BME280;66726;52.388;9.986;2023-07-09T08:40:41;101333.44;;;24.92;48.21
77583;BME280;66726;52.388;9.986;2023-07-09T08:43:28;101327.13;;;25.03;47.30
77583;BME280;66726;52.388;9.986;2023-07-09T08:46:10;101324.97;;;25.05;48.64
77583;BME280;66726;52.388;9.986;2023-07-09T08:48:49;101330.66;;;25.15;49.02
77583;BME280;66726;52.388;9.986;2023-07-09T08:51:28;101326.34;;;25.31;47.73
77583;BME280;66726;52.388;9.986;2023-07-09T08:54:04;101319.38;;;25.40;47.19
77583;BME280;66726;52.388;9.986;2023-07-09T08:56:44;101325.22;;;25.43;47.20
77583;BME280;66726;52.388;9.986;2023-07-09T08:59:19;101318.28;;;25.52;49.15
77583;BME280;66726;52.388;9.986;2023-07-09T09:01:57;101320.84;;;25.70;46.61
77583;BME280;66726;52.388;9.986;2023-07-09T09:04:38;101310.53;;;25.78;47.58
77583;BME280;66726;52.388;9.986;2023-07-09T09:07:19;101316.94;;;25.83;48.26
77583;BME280;66726;52.388;9.986;2023-07-09T09:10:03;101322.09;;;25.96;46.71
77583;BME280;66726;52.388;9.986;2023-07-09T09:12:43;101320.69;;;26.22;46.65
77583;BME280;66726;52.388;9.986;2023-07-09T09:15:22;101320.56;;;26.34;44.56
77583;BME280;66726;52.388;9.986;2023-07-09T09:17:57;101320.34;;;26.35;47.46
77583;BME280;66726;52.388;9.986;2023-07-09T09:20:33;101328.31;;;26.53;42.84
77583;BME280;66726;52.388;9.986;2023-07-09T09:23:15;101318.50;;;26.57;45.87
77583;BME280;66726;52.388;9.986;2023-07-09T09:25:51;101321.44;;;26.72;44.37
77583;BME280;66726;52.388;9.986;2023-07-09T09:28:44;101324.78;;;26.91;44.05
77583;BME280;66726;52.388;9.986;2023-07-09T09:31:19;101314.25;;;27.05;43.18
77583;BME280;66726;52.388;9.986;2023-07-09T09:33:52;101322.41;;;27.00;45.42
77583;BME280;66726;52.388;9.986;2023-07-09T09:36:28;101323.69;;;27.14;42.72
77583;BME280;66726;52.388;9.986;2023-07-09T09:39:05;101325.50;;;27.25;42.12
77583;BME280;66726;52.388;9.986;2023-07-09T09:41:40;101315.25;;;27.42;38.82
77583;BME280;66726;52.388;9.986;2023-07-09T09:44:21;101321.97;;;27.51;40.58
77583;BME280;66726;52.388;9.986;2023-07-09T09:46:57;101316.44;;;27.73;41.23
77583;BME280;66726;52.388;9.986;2023-07-09T09:49:37;101317.31;;;27.79;40.76
77583;BME280;66726;52.388;9.986;2023-07-09T09:52:15;101320.78;;;27.96;37.90
77583;BME280;66726;52.388;9.986;2023-07-09T09:54:55;101316.31;;;28.16;36.79
77583;BME280;66726;52.388;9.986;2023-07-09T09:57:29;101314.44;;;28.22;40.10
77583;BME280;66726;52.388;9.986;2023-07-09T10:00:02;101317.28;;;28.32;38.36
77583;BME280;66726;52.388;9.986;2023-07-09T10:02:43;101325.31;;;28.39;37.56
77583;BME280;66726;52.388;9.986;2023-07-09T10:05:19;101325.69;;;28.52;37.73
77583;BME280;66726;52.388;9.986;2023-07-09T10:08:03;101322.41;;;28.60;39.24
77583;BME280;66726;52.388;9.986;2023-07-09T10:10:37;101320.94;;;28.85;38.23
77583;BME280;66726;52.388;9.986;2023-07-09T10:13:23;101313.28;;;28.92;37.35
77583;BME280;66726;52.388;9.986;2023-07-09T10:16:07;101329.84;;;28.97;36.36
77583;BME280;66726;52.388;9.986;2023-07-09T10:18:52;101322.16;;;29.04;38.86
77583;BME280;66726;52.388;9.986;2023-07-09T10:21:34;101319.41;;;29.09;39.55
77583;BME280;66726;52.388;9.986;2023-07-09T10:24:36;101320.03;;;29.21;37.57
77583;BME280;66726;52.388;9.986;2023-07-09T10:27:16;101326.75;;;29.40;37.38
77583;BME280;66726;52.388;9.986;2023-07-09T10:30:13;101320.97;;;29.47;36.11
77583;BME280;66726;52.388;9.986;2023-07-09T10:33:10;101322.13;;;29.61;35.96
77583;BME280;66726;52.388;9.986;2023-07-09T10:35:49;101318.56;;;29.81;34.92
77583;BME280;66726;52.388;9.986;2023-07-09T10:38:45;101317.72;;;29.80;38.90
77583;BME280;66726;52.388;9.986;2023-07-09T10:41:22;101317.50;;;29.92;37.96
77583;BME280;66726;52.388;9.986;2023-07-09T10:44:03;101311.19;;;30.06;35.75
77583;BME280;66726;52.388;9.986;2023-07-09T10:46:43;101309.25;;;30.17;36.86
77583;BME280;66726;52.388;9.986;2023-07-09T10:49:18;101310.31;;;30.21;36.87
77583;BME280;66726;52.388;9.986;2023-07-09T10:51:54;101308.66;;;30.40;35.77
77583;BME280;66726;52.388;9.986;2023-07-09T10:54:41;101304.25;;;30.49;36.05
77583;BME280;66726;52.388;9.986;2023-07-09T10:57:25;101305.34;;;30.58;35.75
77583;BME280;66726;52.388;9.986;2023-07-09T11:00:01;101299.28;;;30.61;37.54
77583;BME280;66726;52.388;9.986;2023-07-09T11:02:38;101304.16;;;30.95;34.54
77583;BME280;66726;52.388;9.986;2023-07-09T11:05:10;101299.19;;;30.97;35.24
77583;BME280;66726;52.388;9.986;2023-07-09T11:07:53;101298.31;;;31.06;36.51
77583;BME280;66726;52.388;9.986;2023-07-09T11:10:34;101306.81;;;31.20;35.65
77583;BME280;66726;52.388;9.986;2023-07-09T11:13:16;101308.47;;;31.26;32.40
77583;BME280;66726;52.388;9.986;2023-07-09T11:15:54;101314.75;;;31.42;31.99
77583;BME280;66726;52.388;9.986;2023-07-09T11:18:32;101305.03;;;31.44;33.61
77583;BME280;66726;52.388;9.986;2023-07-09T11:21:14;101311.94;;;31.57;32.82
77583;BME280;66726;52.388;9.986;2023-07-09T11:23:53;101309.38;;;31.65;33.11
77583;BME280;66726;52.388;9.986;2023-07-09T11:26:30;101294.94;;;31.74;33.15
77583;BME280;66726;52.388;9.986;2023-07-09T11:29:23;101296.53;;;31.80;32.10
77583;BME280;66726;52.388;9.986;2023-07-09T11:31:54;101294.28;;;31.87;32.22
77583;BME280;66726;52.388;9.986;2023-07-09T11:34:31;101293.94;;;31.93;32.11
77583;BME280;66726;52.388;9.986;2023-07-09T11:37:13;101283.63;;;32.09;32.30
77583;BME280;66726;52.388;9.986;2023-07-09T11:39:49;101295.47;;;32.14;32.14
77583;BME280;66726;52.388;9.986;2023-07-09T11:42:34;101284.53;;;32.28;30.41
77583;BME280;66726;52.388;9.986;2023-07-09T11:45:12;101286.69;;;32.36;32.34
77583;BME280;66726;52.388;9.986;2023-07-09T11:47:50;101286.59;;;32.46;30.30
77583;BME280;66726;52.388;9.986;2023-07-09T11:50:31;101277.63;;;32.54;30.72
77583;BME280;66726;52.388;9.986;2023-07-09T11:53:22;101283.16;;;32.54;29.79
77583;BME280;66726;52.388;9.986;2023-07-09T11:55:56;101272.88;;;32.60;31.97
77583;BME280;66726;52.388;9.986;2023-07-09T11:58:30;101275.19;;;32.77;29.56
77583;BME280;66726;52.388;9.986;2023-07-09T12:01:14;101268.47;;;32.83;31.27
77583;BME280;66726;52.388;9.986;2023-07-09T12:03:50;101272.56;;;32.85;31.92
77583;BME280;66726;52.388;9.986;2023-07-09T12:06:26;101269.41;;;32.97;30.37
77583;BME280;66726;52.388;9.986;2023-07-09T12:08:59;101267.59;;;33.06;31.64
77583;BME280;66726;52.388;9.986;2023-07-09T12:11:34;101277.53;;;33.12;30.08
77583;BME280;66726;52.388;9.986;2023-07-09T12:14:11;101264.06;;;33.24;30.55
77583;BME280;66726;52.388;9.986;2023-07-09T12:16:47;101266.19;;;33.32;30.57
77583;BME280;66726;52.388;9.986;2023-07-09T12:19:24;101271.50;;;33.47;30.56
77583;BME280;66726;52.388;9.986;2023-07-09T12:21:58;101262.56;;;33.50;29.08
77583;BME280;66726;52.388;9.986;2023-07-09T12:24:35;101264.09;;;33.61;28.51
77583;BME280;66726;52.388;9.986;2023-07-09T12:27:21;101257.78;;;33.75;30.67
77583;BME280;66726;52.388;9.986;2023-07-09T12:29:59;101248.16;;;33.86;30.39
77583;BME280;66726;52.388;9.986;2023-07-09T12:32:32;101252.50;;;33.92;30.13
77583;BME280;66726;52.388;9.986;2023-07-09T12:35:04;101245.72;;;33.98;30.70
77583;BME280;66726;52.388;9.986;2023-07-09T12:37:36;101239.75;;;34.04;27.32
77583;BME280;66726;52.388;9.986;2023-07-09T12:40:18;101242.75;;;34.08;27.66
77583;BME280;66726;52.388;9.986;2023-07-09T12:42:52;101247.38;;;34.18;29.02
77583;BME280;66726;52.388;9.986;2023-07-09T12:45:26;101246.44;;;34.22;25.54
77583;BME280;66726;52.388;9.986;2023-07-09T12:48:00;101244.91;;;34.30;27.59
77583;BME280;66726;52.388;9.986;2023-07-09T12:50:35;101237.81;;;34.37;26.85
77583;BME280;66726;52.388;9.986;2023-07-09T12:53:17;101237.63;;;34.47;27.98
77583;BME280;66726;52.388;9.986;2023-07-09T12:55:50;101229.16;;;34.52;27.77
77583;BME280;66726;52.388;9.986;2023-07-09T12:58:28;101234.84;;;34.61;27.38
77583;BME280;66726;52.388;9.986;2023-07-09T13:01:07;101234.03;;;34.74;26.55
77583;BME280;66726;52.388;9.986;2023-07-09T13:03:41;101234.94;;;34.83;27.51
77583;BME280;66726;52.388;9.986;2023-07-09T13:06:35;101232.06;;;34.88;28.02
77583;BME280;66726;52.388;9.986;2023-07-09T13:09:18;101234.75;;;34.93;28.39
77583;BME280;66726;52.388;9.986;2023-07-09T13:11:52;101237.63;;;35.02;28.66
77583;BME280;66726;52.388;9.986;2023-07-09T13:14:29;101230.94;;;35.03;27.49
77583;BME280;66726;52.388;9.986;2023-07-09T13:17:09;101233.38;;;35.04;28.13
77583;BME280;66726;52.388;9.986;2023-07-09T13:19:43;101224.41;;;35.07;25.76
77583;BME280;66726;52.388;9.986;2023-07-09T13:22:15;101214.88;;;35.14;27.83
77583;BME280;66726;52.388;9.986;2023-07-09T13:24:49;101217.59;;;35.27;27.33
77583;BME280;66726;52.388;9.986;2023-07-09T13:27:21;101216.88;;;35.22;26.47
77583;BME280;66726;52.388;9.986;2023-07-09T13:29:54;101218.59;;;35.31;26.25
77583;BME280;66726;52.388;9.986;2023-07-09T13:32:26;101211.41;;;35.30;26.71